Time;durP1;ratioP1;P1;durP2;ratioP2;P2;SDS_P1;SDS_P2;PMS_P1;PMS_P2;Temp;Humidity;BMP_temperature;BMP_pressure;BME280_temperature;BME280_humidity;BME280_pressure;Samples;Min_cycle;Max_cycle;Signal;HPM_P1;HPM_P2
2022/08/08 00:00:10;;;;;;;;;;;19.00;99.90;;;;;;4131508;28;19926;-56
2022/08/08 00:02:57;;;;;;;;;;;19.00;99.90;;;;;;4137995;28;19927;-56
2022/08/08 00:04:59;;;;;;;;;;;18.90;99.90;;;;;;4147742;28;20345;-55
2022/08/08 00:07:23;;;;;;;;;;;18.90;99.90;;;;;;4147640;28;19934;-56
2022/08/08 00:09:46;;;;;;;;;;;18.90;99.90;;;;;;4146048;28;19925;-58
2022/08/08 00:11:54;;;;;;;;;;;18.90;99.90;;;;;;4143018;28;19964;-56
2022/08/08 00:14:19;;;;;;;;;;;18.80;99.90;;;;;;4147365;28;19932;-57
2022/08/08 00:16:45;;;;;;;;;;;18.80;99.90;;;;;;4131011;28;19925;-57
2022/08/08 00:19:10;;;;;;;;;;;18.80;99.90;;;;;;4137248;28;19922;-57
2022/08/08 00:21:21;;;;;;;;;;;18.80;99.90;;;;;;4131252;28;19983;-57
2022/08/08 00:23:24;;;;;;;;;;;18.70;99.90;;;;;;4131498;28;19926;-56
2022/08/08 00:25:50;;;;;;;;;;;18.70;99.90;;;;;;4143967;28;19925;-56
2022/08/08 00:27:56;;;;;;;;;;;18.70;99.90;;;;;;4142078;28;20292;-57
2022/08/08 00:29:58;;;;;;;;;;;18.60;99.90;;;;;;4141840;28;19925;-57
2022/08/08 00:32:25;;;;;;;;;;;18.60;99.90;;;;;;4131283;28;19953;-57
2022/08/08 00:37:05;;;;;;;;;;;18.60;99.90;;;;;;4146901;28;19953;-56
2022/08/08 00:39:12;;;;;;;;;;;18.60;99.90;;;;;;4147412;28;19952;-56
2022/08/08 00:41:34;;;;;;;;;;;18.60;99.90;;;;;;4134162;28;19928;-57
2022/08/08 00:44:11;;;;;;;;;;;18.60;99.90;;;;;;4139235;28;19967;-56
2022/08/08 00:46:19;;;;;;;;;;;18.60;99.90;;;;;;4146794;28;19922;-57
2022/08/08 00:48:40;;;;;;;;;;;18.60;99.90;;;;;;4146781;28;20377;-56
2022/08/08 00:50:51;;;;;;;;;;;18.60;99.90;;;;;;4138207;28;19932;-57
2022/08/08 00:53:05;;;;;;;;;;;18.60;99.90;;;;;;4131419;28;19922;-56
2022/08/08 00:55:13;;;;;;;;;;;18.70;99.90;;;;;;4147132;28;20385;-57
2022/08/08 00:57:20;;;;;;;;;;;18.70;99.90;;;;;;4136018;28;20409;-57
2022/08/08 00:59:36;;;;;;;;;;;18.70;99.90;;;;;;4132993;28;19926;-57
2022/08/08 01:02:03;;;;;;;;;;;18.70;99.90;;;;;;4146341;28;20012;-56
2022/08/08 01:04:05;;;;;;;;;;;18.70;99.90;;;;;;4132528;28;19922;-56
2022/08/08 01:06:11;;;;;;;;;;;18.80;99.90;;;;;;4135039;28;19925;-56
2022/08/08 01:08:31;;;;;;;;;;;18.70;99.90;;;;;;4146462;28;19928;-57
2022/08/08 01:10:42;;;;;;;;;;;18.60;99.90;;;;;;4146623;28;19922;-56
2022/08/08 01:12:46;;;;;;;;;;;18.50;99.90;;;;;;4146424;28;20385;-57
2022/08/08 01:15:07;;;;;;;;;;;18.40;99.90;;;;;;4146725;28;20004;-58
2022/08/08 01:17:18;;;;;;;;;;;18.40;99.90;;;;;;4131882;28;19972;-57
2022/08/08 01:19:19;;;;;;;;;;;18.30;99.90;;;;;;4146775;28;19929;-57
2022/08/08 01:21:44;;;;;;;;;;;18.20;99.90;;;;;;4146441;28;20008;-57
2022/08/08 01:24:19;;;;;;;;;;;18.20;99.90;;;;;;4146292;28;19957;-56
2022/08/08 01:26:24;;;;;;;;;;;18.20;99.90;;;;;;4144818;28;19922;-56
2022/08/08 01:28:26;;;;;;;;;;;18.20;99.90;;;;;;4141937;28;20540;-57
2022/08/08 01:30:29;;;;;;;;;;;18.10;99.90;;;;;;4129952;28;20032;-56
2022/08/08 01:32:41;;;;;;;;;;;18.10;99.90;;;;;;4141627;28;19925;-57
2022/08/08 01:34:55;;;;;;;;;;;18.00;99.90;;;;;;4142735;28;20024;-58
2022/08/08 01:37:27;;;;;;;;;;;17.90;99.90;;;;;;4130045;28;19925;-57
2022/08/08 01:40:08;;;;;;;;;;;17.80;99.90;;;;;;4130131;28;19941;-57
2022/08/08 01:42:25;;;;;;;;;;;17.80;99.90;;;;;;4142613;28;20433;-56
2022/08/08 01:44:55;;;;;;;;;;;17.80;99.90;;;;;;4146219;28;19964;-58
2022/08/08 01:47:15;;;;;;;;;;;17.90;99.90;;;;;;4146140;28;19926;-56
2022/08/08 01:49:56;;;;;;;;;;;17.90;99.90;;;;;;4146294;28;19965;-57
2022/08/08 01:52:03;;;;;;;;;;;18.00;99.90;;;;;;4145973;28;20447;-57
2022/08/08 01:54:28;;;;;;;;;;;18.10;99.90;;;;;;4138054;28;20013;-57
2022/08/08 01:56:50;;;;;;;;;;;18.10;99.90;;;;;;4146452;28;19933;-57
2022/08/08 01:58:58;;;;;;;;;;;18.10;99.90;;;;;;4130079;28;19926;-57
2022/08/08 02:01:10;;;;;;;;;;;18.20;99.90;;;;;;4138721;28;20505;-56
2022/08/08 02:03:35;;;;;;;;;;;18.10;99.90;;;;;;4145934;28;20012;-57
2022/08/08 02:06:03;;;;;;;;;;;18.10;99.90;;;;;;4146035;28;19948;-56
2022/08/08 02:08:19;;;;;;;;;;;18.10;99.90;;;;;;4138730;28;19925;-56
2022/08/08 02:10:42;;;;;;;;;;;18.10;99.90;;;;;;4137727;28;19957;-57
2022/08/08 02:12:51;;;;;;;;;;;18.10;99.90;;;;;;4133727;28;20016;-56
2022/08/08 02:15:02;;;;;;;;;;;18.10;99.90;;;;;;4149176;28;19922;-58
2022/08/08 02:17:17;;;;;;;;;;;18.10;99.90;;;;;;4139317;28;20423;-56
2022/08/08 02:19:25;;;;;;;;;;;18.10;99.90;;;;;;4145687;28;19922;-56
2022/08/08 02:24:17;;;;;;;;;;;18.00;99.90;;;;;;4131658;28;19932;-56
2022/08/08 02:26:33;;;;;;;;;;;18.00;99.90;;;;;;4132966;28;19936;-57
2022/08/08 02:28:53;;;;;;;;;;;18.00;99.90;;;;;;4133575;28;19925;-57
2022/08/08 02:30:58;;;;;;;;;;;18.00;99.90;;;;;;4148946;28;19956;-56
2022/08/08 02:33:05;;;;;;;;;;;17.90;99.90;;;;;;4149381;28;19972;-58
2022/08/08 02:35:07;;;;;;;;;;;17.90;99.90;;;;;;4146799;28;19925;-56
2022/08/08 02:37:30;;;;;;;;;;;17.90;99.90;;;;;;4135148;28;20325;-57
2022/08/08 02:39:58;;;;;;;;;;;17.80;99.90;;;;;;4134539;28;20043;-57
2022/08/08 02:42:18;;;;;;;;;;;17.80;99.90;;;;;;4138439;28;20377;-57
2022/08/08 02:44:46;;;;;;;;;;;17.80;99.90;;;;;;4152870;28;19922;-57
2022/08/08 02:47:10;;;;;;;;;;;17.70;99.90;;;;;;4132728;28;20052;-56
2022/08/08 02:49:22;;;;;;;;;;;17.70;99.90;;;;;;4145037;28;19921;-56
2022/08/08 02:52:03;;;;;;;;;;;17.70;99.90;;;;;;4147395;28;20681;-56
2022/08/08 02:54:36;;;;;;;;;;;17.60;99.90;;;;;;4144985;28;20381;-58
2022/08/08 02:56:56;;;;;;;;;;;17.70;99.90;;;;;;4132583;28;19972;-56
2022/08/08 02:59:20;;;;;;;;;;;17.70;99.90;;;;;;4146439;28;20138;-57
2022/08/08 03:01:40;;;;;;;;;;;17.70;99.90;;;;;;4138518;28;19933;-56
2022/08/08 03:04:09;;;;;;;;;;;17.60;99.90;;;;;;4134282;28;19921;-56
2022/08/08 03:06:31;;;;;;;;;;;17.60;99.90;;;;;;4148818;28;20377;-57
2022/08/08 03:08:54;;;;;;;;;;;17.60;99.90;;;;;;4146034;28;19922;-56
2022/08/08 03:11:05;;;;;;;;;;;17.60;99.90;;;;;;4148127;28;19929;-57
2022/08/08 03:13:07;;;;;;;;;;;17.70;99.90;;;;;;4148281;28;19979;-57
2022/08/08 03:15:47;;;;;;;;;;;17.70;99.90;;;;;;4132186;28;19972;-58
2022/08/08 03:18:07;;;;;;;;;;;17.70;99.90;;;;;;4144111;28;19921;-56
2022/08/08 03:20:12;;;;;;;;;;;17.80;99.90;;;;;;4148215;28;20385;-57
2022/08/08 03:22:14;;;;;;;;;;;17.80;99.90;;;;;;4148462;28;19933;-57
2022/08/08 03:24:36;;;;;;;;;;;17.70;99.90;;;;;;4147562;28;19968;-56
2022/08/08 03:26:43;;;;;;;;;;;17.80;99.90;;;;;;4142274;28;19941;-56
2022/08/08 03:28:46;;;;;;;;;;;17.80;99.90;;;;;;4132047;28;19928;-57
2022/08/08 03:30:52;;;;;;;;;;;17.80;99.90;;;;;;4131616;28;20004;-57
2022/08/08 03:33:17;;;;;;;;;;;17.70;99.90;;;;;;4138769;28;19926;-57
2022/08/08 03:35:40;;;;;;;;;;;17.60;99.90;;;;;;4148013;28;19927;-56
2022/08/08 03:37:44;;;;;;;;;;;17.60;99.90;;;;;;4148185;28;20307;-56
2022/08/08 03:40:06;;;;;;;;;;;17.60;99.90;;;;;;4147048;28;19921;-57
2022/08/08 03:42:17;;;;;;;;;;;17.70;99.90;;;;;;4145152;28;19975;-57
2022/08/08 03:44:33;;;;;;;;;;;17.60;99.90;;;;;;4145166;28;19932;-57
2022/08/08 03:46:48;;;;;;;;;;;17.60;99.90;;;;;;4147832;28;19921;-56
2022/08/08 03:48:57;;;;;;;;;;;17.60;99.90;;;;;;4142824;28;20266;-56
2022/08/08 03:51:19;;;;;;;;;;;17.60;99.90;;;;;;4137023;28;19968;-57
2022/08/08 03:53:34;;;;;;;;;;;17.60;99.90;;;;;;4130429;28;20333;-58
2022/08/08 03:55:45;;;;;;;;;;;17.50;99.90;;;;;;4140506;28;19925;-57
2022/08/08 03:57:58;;;;;;;;;;;17.50;99.90;;;;;;4146432;28;19929;-57
2022/08/08 04:00:21;;;;;;;;;;;17.60;99.90;;;;;;4131804;28;19922;-57
2022/08/08 04:02:26;;;;;;;;;;;17.50;99.90;;;;;;4143263;28;20285;-56
2022/08/08 04:04:38;;;;;;;;;;;17.50;99.90;;;;;;4147326;28;20381;-58
2022/08/08 04:06:45;;;;;;;;;;;17.50;99.90;;;;;;4147760;28;20274;-56
2022/08/08 04:08:47;;;;;;;;;;;17.40;99.90;;;;;;4147570;28;20401;-56
2022/08/08 04:10:50;;;;;;;;;;;17.40;99.90;;;;;;4145219;28;19973;-56
2022/08/08 04:13:01;;;;;;;;;;;17.30;99.90;;;;;;4152988;28;20344;-57
2022/08/08 04:15:09;;;;;;;;;;;17.20;99.90;;;;;;4147120;28;20387;-57
2022/08/08 04:17:11;;;;;;;;;;;17.20;99.90;;;;;;4146893;28;19925;-57
2022/08/08 04:19:17;;;;;;;;;;;17.20;99.90;;;;;;4147158;28;19932;-57
2022/08/08 04:21:25;;;;;;;;;;;17.20;99.90;;;;;;4137016;28;20297;-57
2022/08/08 04:23:34;;;;;;;;;;;17.10;99.90;;;;;;4131194;28;19922;-57
2022/08/08 04:25:56;;;;;;;;;;;17.00;99.90;;;;;;4131106;28;20301;-57
2022/08/08 04:27:58;;;;;;;;;;;17.00;99.90;;;;;;4142558;28;19980;-57
2022/08/08 04:30:06;;;;;;;;;;;17.00;99.90;;;;;;4144058;28;20357;-58
2022/08/08 04:32:19;;;;;;;;;;;17.00;99.90;;;;;;4130967;28;19929;-57
2022/08/08 04:34:34;;;;;;;;;;;17.00;99.90;;;;;;4130382;28;20524;-57
2022/08/08 04:36:50;;;;;;;;;;;17.00;99.90;;;;;;4135776;28;19921;-57
2022/08/08 04:38:55;;;;;;;;;;;17.10;99.90;;;;;;4131845;28;19980;-57
2022/08/08 04:41:19;;;;;;;;;;;17.10;99.90;;;;;;4145691;28;19921;-58
2022/08/08 04:43:23;;;;;;;;;;;17.10;99.90;;;;;;4143902;28;19921;-57
2022/08/08 04:45:34;;;;;;;;;;;17.10;99.90;;;;;;4146848;28;19971;-56
2022/08/08 04:47:39;;;;;;;;;;;17.10;99.90;;;;;;4145565;28;19925;-56
2022/08/08 04:49:47;;;;;;;;;;;17.20;99.90;;;;;;4143957;28;20389;-56
2022/08/08 04:52:02;;;;;;;;;;;17.20;99.90;;;;;;4147126;28;19932;-57
2022/08/08 04:54:07;;;;;;;;;;;17.30;99.90;;;;;;4130665;28;19922;-57
2022/08/08 04:56:39;;;;;;;;;;;17.20;99.90;;;;;;4142054;28;20401;-57
2022/08/08 04:58:42;;;;;;;;;;;17.20;99.90;;;;;;4145397;28;20362;-57
2022/08/08 05:00:45;;;;;;;;;;;17.20;99.90;;;;;;4145718;28;20381;-57
2022/08/08 05:02:49;;;;;;;;;;;17.20;99.90;;;;;;4146908;28;19929;-57
2022/08/08 05:04:56;;;;;;;;;;;17.30;99.90;;;;;;4143963;28;19921;-57
2022/08/08 05:07:00;;;;;;;;;;;17.30;99.90;;;;;;4130475;28;19921;-56
2022/08/08 05:09:05;;;;;;;;;;;17.30;99.90;;;;;;4139111;28;19948;-57
2022/08/08 05:11:12;;;;;;;;;;;17.30;99.90;;;;;;4146589;28;20020;-56
2022/08/08 05:13:21;;;;;;;;;;;17.30;99.90;;;;;;4130233;28;19921;-57
2022/08/08 05:15:22;;;;;;;;;;;17.30;99.90;;;;;;4130010;28;19921;-58
2022/08/08 05:17:24;;;;;;;;;;;17.40;99.90;;;;;;4133912;28;20389;-58
2022/08/08 05:19:26;;;;;;;;;;;17.40;99.90;;;;;;4146160;28;19921;-57
2022/08/08 05:21:48;;;;;;;;;;;17.50;99.90;;;;;;4138187;28;19952;-57
2022/08/08 05:24:00;;;;;;;;;;;17.60;99.90;;;;;;4130381;28;20389;-58
2022/08/08 05:26:09;;;;;;;;;;;17.60;99.90;;;;;;4133962;28;20408;-56
2022/08/08 05:28:11;;;;;;;;;;;17.70;99.90;;;;;;4146460;28;20389;-56
2022/08/08 05:30:13;;;;;;;;;;;17.80;99.90;;;;;;4146417;28;19925;-57
2022/08/08 05:32:15;;;;;;;;;;;17.80;99.90;;;;;;4130697;28;19932;-57
2022/08/08 05:34:28;;;;;;;;;;;17.90;99.90;;;;;;4136113;28;20511;-57
2022/08/08 05:36:34;;;;;;;;;;;17.80;99.90;;;;;;4144869;28;19933;-57
2022/08/08 05:38:43;;;;;;;;;;;17.90;99.90;;;;;;4130540;28;19926;-56
2022/08/08 05:40:52;;;;;;;;;;;17.90;99.90;;;;;;4129562;28;19926;-56
2022/08/08 05:43:04;;;;;;;;;;;18.00;99.90;;;;;;4131173;28;20451;-57
2022/08/08 05:45:28;;;;;;;;;;;18.00;99.90;;;;;;4130375;28;19929;-57
2022/08/08 05:47:44;;;;;;;;;;;18.20;99.90;;;;;;4141611;28;20363;-56
2022/08/08 05:50:05;;;;;;;;;;;18.30;99.90;;;;;;4145603;28;19925;-56
2022/08/08 05:52:10;;;;;;;;;;;18.70;99.90;;;;;;4141318;28;19957;-57
2022/08/08 05:54:31;;;;;;;;;;;18.80;99.90;;;;;;4144404;28;20340;-57
2022/08/08 05:56:56;;;;;;;;;;;18.80;99.90;;;;;;4137221;28;19928;-57
2022/08/08 05:59:04;;;;;;;;;;;19.00;99.90;;;;;;4135155;28;20008;-57
2022/08/08 06:01:11;;;;;;;;;;;19.00;99.90;;;;;;4129860;28;19926;-57
2022/08/08 06:03:14;;;;;;;;;;;19.10;99.90;;;;;;4136224;28;19932;-57
2022/08/08 06:05:39;;;;;;;;;;;19.20;99.90;;;;;;4145391;28;20290;-57
2022/08/08 06:07:41;;;;;;;;;;;19.30;99.90;;;;;;4134900;28;19983;-58
2022/08/08 06:09:46;;;;;;;;;;;19.30;99.90;;;;;;4145678;28;20024;-57
2022/08/08 06:12:05;;;;;;;;;;;19.50;99.90;;;;;;4145697;28;19926;-56
2022/08/08 06:14:08;;;;;;;;;;;19.90;99.90;;;;;;4145770;28;19957;-56
2022/08/08 06:16:16;;;;;;;;;;;19.90;99.90;;;;;;4134152;28;19933;-58
2022/08/08 06:18:24;;;;;;;;;;;20.00;99.90;;;;;;4139409;28;20291;-57
2022/08/08 06:20:33;;;;;;;;;;;20.00;99.90;;;;;;4145816;28;20400;-58
2022/08/08 06:22:36;;;;;;;;;;;20.00;99.90;;;;;;4141719;28;19976;-57
2022/08/08 06:24:40;;;;;;;;;;;20.10;99.90;;;;;;4145692;28;19925;-57
2022/08/08 06:27:03;;;;;;;;;;;20.20;99.90;;;;;;4145952;28;19968;-57
2022/08/08 06:29:09;;;;;;;;;;;20.30;99.90;;;;;;4144374;28;19925;-57
2022/08/08 06:31:34;;;;;;;;;;;20.40;99.90;;;;;;4145669;28;19972;-57
2022/08/08 06:34:04;;;;;;;;;;;20.60;99.90;;;;;;4144433;28;19972;-57
2022/08/08 06:36:30;;;;;;;;;;;20.70;99.90;;;;;;4129957;28;19922;-56
2022/08/08 06:38:36;;;;;;;;;;;20.80;99.90;;;;;;4139986;28;19928;-57
2022/08/08 06:40:48;;;;;;;;;;;21.10;99.90;;;;;;4143422;28;20440;-58
2022/08/08 06:43:02;;;;;;;;;;;21.30;99.90;;;;;;4130219;28;20418;-58
2022/08/08 06:45:04;;;;;;;;;;;21.30;99.90;;;;;;4145376;28;19925;-57
2022/08/08 06:47:06;;;;;;;;;;;21.40;99.90;;;;;;4144103;28;20016;-56
2022/08/08 06:49:10;;;;;;;;;;;21.50;99.90;;;;;;4129620;28;19949;-57
2022/08/08 06:51:12;;;;;;;;;;;21.70;99.90;;;;;;4145526;28;19927;-56
2022/08/08 06:53:16;;;;;;;;;;;22.00;99.90;;;;;;4145695;28;19921;-57
2022/08/08 06:55:24;;;;;;;;;;;22.00;99.90;;;;;;4129759;28;19921;-57
2022/08/08 06:57:30;;;;;;;;;;;22.20;99.90;;;;;;4129427;28;20255;-57
2022/08/08 06:59:54;;;;;;;;;;;22.30;99.90;;;;;;4132286;28;19957;-57
2022/08/08 07:02:21;;;;;;;;;;;22.20;99.90;;;;;;4148343;28;19921;-58
2022/08/08 07:04:49;;;;;;;;;;;22.30;99.90;;;;;;4133431;28;19932;-57
2022/08/08 07:06:58;;;;;;;;;;;22.30;99.90;;;;;;4139045;28;19921;-57
2022/08/08 07:09:14;;;;;;;;;;;22.50;99.90;;;;;;4132374;28;20309;-56
2022/08/08 07:11:21;;;;;;;;;;;23.00;99.90;;;;;;4136737;28;19925;-57
2022/08/08 07:13:27;;;;;;;;;;;23.20;99.90;;;;;;4148193;28;20290;-59
2022/08/08 07:15:35;;;;;;;;;;;23.20;99.90;;;;;;4146833;28;19977;-57
2022/08/08 07:18:32;;;;;;;;;;;23.40;99.90;;;;;;4142707;28;19928;-56
2022/08/08 07:21:02;;;;;;;;;;;23.50;99.90;;;;;;4132405;28;19931;-57
2022/08/08 07:23:24;;;;;;;;;;;23.90;99.90;;;;;;4139533;28;19928;-57
2022/08/08 07:25:26;;;;;;;;;;;24.10;99.90;;;;;;4146273;28;19949;-57
2022/08/08 07:27:36;;;;;;;;;;;24.50;99.90;;;;;;4132119;28;20294;-57
2022/08/08 07:29:49;;;;;;;;;;;24.80;99.90;;;;;;4143528;28;20036;-57
2022/08/08 07:32:05;;;;;;;;;;;24.90;99.90;;;;;;4144202;28;19929;-56
2022/08/08 07:34:08;;;;;;;;;;;24.90;99.90;;;;;;4132415;28;19922;-56
2022/08/08 07:36:11;;;;;;;;;;;24.90;99.90;;;;;;4143528;28;20013;-56
2022/08/08 07:38:15;;;;;;;;;;;25.00;99.90;;;;;;4145496;28;19921;-56
2022/08/08 07:40:22;;;;;;;;;;;25.00;99.90;;;;;;4131803;28;19956;-56
2022/08/08 07:42:31;;;;;;;;;;;25.00;99.90;;;;;;4131864;28;19932;-57
2022/08/08 07:44:37;;;;;;;;;;;25.20;99.90;;;;;;4145620;28;19921;-57
2022/08/08 07:46:44;;;;;;;;;;;25.60;99.90;;;;;;4147792;28;20445;-57
2022/08/08 07:48:51;;;;;;;;;;;25.70;99.90;;;;;;4137094;28;19932;-57
2022/08/08 07:50:57;;;;;;;;;;;25.90;99.90;;;;;;4145341;28;20409;-56
2022/08/08 07:53:03;;;;;;;;;;;26.00;99.90;;;;;;4148197;28;20007;-56
2022/08/08 07:55:09;;;;;;;;;;;26.10;99.90;;;;;;4138021;28;19921;-56
2022/08/08 07:57:15;;;;;;;;;;;26.50;99.90;;;;;;4147820;28;20024;-57
2022/08/08 07:59:18;;;;;;;;;;;26.30;99.90;;;;;;4132032;28;20437;-57
2022/08/08 08:01:25;;;;;;;;;;;26.40;99.90;;;;;;4131558;28;20324;-56
2022/08/08 08:03:31;;;;;;;;;;;26.60;99.90;;;;;;4131801;28;20329;-58
2022/08/08 08:05:42;;;;;;;;;;;26.80;99.90;;;;;;4131802;28;20025;-58
2022/08/08 08:07:46;;;;;;;;;;;26.70;99.90;;;;;;4140245;28;19931;-58
2022/08/08 08:09:54;;;;;;;;;;;26.70;99.50;;;;;;4161847;28;20367;-58
2022/08/08 08:11:58;;;;;;;;;;;27.20;99.90;;;;;;4147479;28;19931;-57
2022/08/08 08:14:08;;;;;;;;;;;27.60;99.90;;;;;;4139451;28;20374;-57
2022/08/08 08:16:31;;;;;;;;;;;28.00;99.90;;;;;;4145747;28;20385;-58
2022/08/08 08:18:47;;;;;;;;;;;28.00;99.70;;;;;;4144139;28;19921;-56
2022/08/08 08:20:53;;;;;;;;;;;28.10;99.60;;;;;;4147363;28;19928;-57
2022/08/08 08:22:55;;;;;;;;;;;28.30;99.20;;;;;;4144680;28;20369;-56
2022/08/08 08:24:57;;;;;;;;;;;28.40;97.90;;;;;;4131516;28;20263;-57
2022/08/08 08:26:59;;;;;;;;;;;28.50;98.60;;;;;;4146048;28;20301;-57
2022/08/08 08:29:04;;;;;;;;;;;28.70;98.60;;;;;;4131832;28;19925;-57
2022/08/08 08:31:06;;;;;;;;;;;29.10;98.00;;;;;;4146926;28;19925;-56
2022/08/08 08:33:08;;;;;;;;;;;29.10;97.70;;;;;;4139139;28;20012;-57
2022/08/08 08:35:11;;;;;;;;;;;29.30;96.70;;;;;;4130870;28;20367;-57
2022/08/08 08:37:16;;;;;;;;;;;29.10;96.30;;;;;;4146261;28;19926;-57
2022/08/08 08:39:21;;;;;;;;;;;29.40;96.80;;;;;;4145731;28;20369;-57
2022/08/08 08:41:24;;;;;;;;;;;29.60;97.30;;;;;;4136369;28;20404;-57
2022/08/08 08:43:26;;;;;;;;;;;29.50;96.00;;;;;;4140543;28;19929;-56
2022/08/08 08:45:30;;;;;;;;;;;29.60;96.20;;;;;;4142627;28;20358;-57
2022/08/08 08:47:32;;;;;;;;;;;29.70;95.30;;;;;;4146092;28;19931;-57
2022/08/08 08:49:34;;;;;;;;;;;30.00;94.90;;;;;;4136863;28;19926;-57
2022/08/08 08:51:37;;;;;;;;;;;30.00;94.20;;;;;;4134556;28;19932;-57
2022/08/08 08:53:42;;;;;;;;;;;30.10;96.80;;;;;;4135362;28;19952;-58
2022/08/08 08:55:58;;;;;;;;;;;30.10;94.80;;;;;;4138650;28;19925;-57
2022/08/08 08:58:02;;;;;;;;;;;29.70;93.20;;;;;;4135368;28;19925;-57
2022/08/08 09:00:05;;;;;;;;;;;29.90;94.30;;;;;;4130566;28;19965;-58
2022/08/08 09:02:18;;;;;;;;;;;30.40;93.60;;;;;;4140154;28;19932;-57
2022/08/08 09:04:21;;;;;;;;;;;30.40;93.60;;;;;;4135441;28;19976;-57
2022/08/08 09:06:36;;;;;;;;;;;30.60;91.60;;;;;;4141931;28;20396;-58
2022/08/08 09:08:41;;;;;;;;;;;30.30;91.60;;;;;;4136919;28;20464;-57
2022/08/08 09:10:43;;;;;;;;;;;30.20;91.00;;;;;;4152477;28;19965;-56
2022/08/08 09:12:49;;;;;;;;;;;30.10;90.90;;;;;;4152146;28;19932;-57
2022/08/08 09:14:53;;;;;;;;;;;30.20;92.90;;;;;;4137181;28;20012;-57
2022/08/08 09:16:55;;;;;;;;;;;30.30;91.80;;;;;;4142358;28;19922;-57
2022/08/08 09:18:57;;;;;;;;;;;30.30;92.50;;;;;;4136626;28;19929;-58
2022/08/08 09:21:00;;;;;;;;;;;30.60;92.70;;;;;;4137940;28;20319;-57
2022/08/08 09:23:22;;;;;;;;;;;30.60;92.00;;;;;;4147832;28;19929;-57
2022/08/08 09:25:26;;;;;;;;;;;30.90;92.00;;;;;;4140046;28;20408;-58
2022/08/08 09:27:38;;;;;;;;;;;31.00;91.00;;;;;;4138791;28;20150;-58
2022/08/08 09:30:05;;;;;;;;;;;30.90;90.60;;;;;;4136358;28;19921;-58
2022/08/08 09:32:09;;;;;;;;;;;31.00;90.70;;;;;;4134849;28;20019;-58
2022/08/08 09:34:16;;;;;;;;;;;31.20;91.60;;;;;;4128908;28;19922;-58
2022/08/08 09:36:34;;;;;;;;;;;31.30;90.70;;;;;;4136875;28;19976;-57
2022/08/08 09:38:46;;;;;;;;;;;31.50;90.80;;;;;;4138981;28;19921;-57
2022/08/08 09:40:55;;;;;;;;;;;31.20;90.00;;;;;;4135419;28;19922;-57
2022/08/08 09:43:16;;;;;;;;;;;30.60;90.40;;;;;;4133497;28;20141;-57
2022/08/08 09:45:39;;;;;;;;;;;31.00;90.70;;;;;;4139195;28;19925;-57
2022/08/08 09:47:57;;;;;;;;;;;31.20;90.00;;;;;;4132456;28;19925;-57
2022/08/08 09:50:08;;;;;;;;;;;31.40;88.10;;;;;;4143786;28;19925;-58
2022/08/08 09:52:21;;;;;;;;;;;31.30;89.00;;;;;;4146189;28;19971;-58
2022/08/08 09:54:43;;;;;;;;;;;31.40;88.50;;;;;;4144724;28;19983;-58
2022/08/08 09:56:52;;;;;;;;;;;31.90;87.50;;;;;;4134826;28;20338;-58
2022/08/08 09:59:04;;;;;;;;;;;31.60;87.60;;;;;;4137272;28;20016;-57
2022/08/08 10:01:26;;;;;;;;;;;31.60;87.50;;;;;;4133948;28;19922;-57
2022/08/08 10:03:53;;;;;;;;;;;31.80;88.50;;;;;;4129950;28;19925;-57
2022/08/08 10:05:56;;;;;;;;;;;32.10;87.30;;;;;;4133752;28;19921;-57
2022/08/08 10:07:59;;;;;;;;;;;32.10;87.20;;;;;;4136991;28;19943;-57
2022/08/08 10:10:02;;;;;;;;;;;32.00;87.30;;;;;;4145075;28;19925;-58
2022/08/08 10:12:08;;;;;;;;;;;31.90;86.90;;;;;;4137097;28;19929;-57
2022/08/08 10:14:34;;;;;;;;;;;31.70;86.80;;;;;;4130986;28;19926;-57
2022/08/08 10:16:40;;;;;;;;;;;32.30;86.80;;;;;;4146108;28;19931;-57
2022/08/08 10:18:42;;;;;;;;;;;32.10;85.00;;;;;;4143377;28;19921;-58
2022/08/08 10:20:46;;;;;;;;;;;31.90;87.80;;;;;;4144038;28;19972;-58
2022/08/08 10:23:02;;;;;;;;;;;32.00;86.00;;;;;;4144972;28;19921;-59
2022/08/08 10:25:06;;;;;;;;;;;32.30;86.00;;;;;;4140222;28;19925;-57
2022/08/08 10:27:08;;;;;;;;;;;32.70;87.00;;;;;;4143569;28;19975;-57
2022/08/08 10:29:13;;;;;;;;;;;32.60;85.40;;;;;;4129777;28;19922;-57
2022/08/08 10:33:51;;;;;;;;;;;32.70;87.20;;;;;;4131829;28;19926;-58
2022/08/08 10:36:14;;;;;;;;;;;32.70;85.70;;;;;;4138659;28;19925;-57
2022/08/08 10:38:24;;;;;;;;;;;32.40;85.20;;;;;;4139150;28;20034;-58
2022/08/08 10:40:27;;;;;;;;;;;32.30;83.00;;;;;;4138268;28;19925;-57
2022/08/08 10:42:35;;;;;;;;;;;30.80;78.60;;;;;;4144977;28;19925;-57
2022/08/08 10:44:39;;;;;;;;;;;29.50;80.40;;;;;;4136795;28;20001;-56
2022/08/08 10:46:41;;;;;;;;;;;28.80;80.40;;;;;;4146688;28;20149;-57
2022/08/08 10:48:44;;;;;;;;;;;28.00;79.40;;;;;;4148779;28;19925;-57
2022/08/08 10:51:10;;;;;;;;;;;27.40;80.40;;;;;;4144250;28;19925;-58
2022/08/08 10:53:11;;;;;;;;;;;27.10;79.70;;;;;;4132369;28;20312;-58
2022/08/08 10:55:16;;;;;;;;;;;27.00;79.80;;;;;;4132342;28;20353;-57
2022/08/08 10:57:48;;;;;;;;;;;26.90;80.20;;;;;;4148771;28;19956;-57
2022/08/08 10:59:55;;;;;;;;;;;26.80;82.40;;;;;;4140124;28;19922;-57
2022/08/08 11:01:58;;;;;;;;;;;26.10;84.90;;;;;;4132447;28;19921;-56
2022/08/08 11:04:00;;;;;;;;;;;25.20;85.00;;;;;;4147699;28;19921;-58
2022/08/08 11:06:05;;;;;;;;;;;24.90;86.00;;;;;;4147185;28;20020;-57
2022/08/08 11:08:07;;;;;;;;;;;24.80;87.70;;;;;;4148559;28;19964;-56
2022/08/08 11:10:29;;;;;;;;;;;24.60;87.40;;;;;;4132865;28;20029;-57
2022/08/08 11:12:32;;;;;;;;;;;24.30;90.40;;;;;;4145048;28;19974;-56
2022/08/08 11:15:08;;;;;;;;;;;23.50;93.40;;;;;;4148582;28;19921;-58
2022/08/08 11:17:10;;;;;;;;;;;22.70;97.30;;;;;;4145559;28;20467;-57
2022/08/08 11:19:15;;;;;;;;;;;21.40;99.90;;;;;;4145990;28;19921;-57
2022/08/08 11:21:18;;;;;;;;;;;20.50;99.90;;;;;;4145018;28;20439;-57
2022/08/08 11:23:22;;;;;;;;;;;19.90;99.90;;;;;;4129864;28;19925;-56
2022/08/08 11:25:31;;;;;;;;;;;19.50;99.90;;;;;;4137929;28;20107;-57
2022/08/08 11:27:53;;;;;;;;;;;19.20;99.90;;;;;;4142301;28;19928;-57
2022/08/08 11:29:56;;;;;;;;;;;18.80;99.90;;;;;;4145924;28;20308;-56
2022/08/08 11:32:21;;;;;;;;;;;18.50;99.90;;;;;;4143004;28;20017;-56
2022/08/08 11:34:24;;;;;;;;;;;18.40;99.90;;;;;;4129856;28;19922;-57
2022/08/08 11:36:32;;;;;;;;;;;18.50;99.90;;;;;;4151134;28;20128;-57
2022/08/08 11:38:37;;;;;;;;;;;18.40;99.90;;;;;;4145713;28;19963;-58
2022/08/08 11:40:55;;;;;;;;;;;18.60;99.90;;;;;;4145537;28;19928;-58
2022/08/08 11:42:58;;;;;;;;;;;18.70;99.90;;;;;;4144714;28;20031;-58
2022/08/08 11:45:01;;;;;;;;;;;18.60;99.90;;;;;;4141035;28;20393;-57
2022/08/08 11:47:03;;;;;;;;;;;18.60;99.90;;;;;;4145473;28;20686;-57
2022/08/08 11:49:10;;;;;;;;;;;18.30;99.90;;;;;;4145945;28;19957;-58
2022/08/08 11:51:12;;;;;;;;;;;18.10;99.90;;;;;;4145446;28;19964;-58
2022/08/08 11:53:34;;;;;;;;;;;18.20;99.90;;;;;;4149865;28;19921;-57
2022/08/08 11:55:47;;;;;;;;;;;18.50;99.90;;;;;;4153488;28;19925;-58
2022/08/08 11:57:59;;;;;;;;;;;18.70;99.90;;;;;;4135811;28;19929;-58
2022/08/08 12:00:05;;;;;;;;;;;18.80;99.90;;;;;;4137910;28;19925;-57
2022/08/08 12:02:07;;;;;;;;;;;18.70;99.90;;;;;;4147467;28;19936;-56
2022/08/08 12:04:29;;;;;;;;;;;18.80;99.90;;;;;;4133201;28;19921;-57
2022/08/08 12:06:31;;;;;;;;;;;18.60;99.90;;;;;;4136326;28;19925;-56
2022/08/08 12:08:35;;;;;;;;;;;18.60;99.90;;;;;;4147434;28;19921;-55
2022/08/08 12:10:47;;;;;;;;;;;18.50;99.90;;;;;;4147394;28;19921;-56
2022/08/08 12:12:50;;;;;;;;;;;18.60;99.90;;;;;;4135460;28;19933;-55
2022/08/08 12:15:01;;;;;;;;;;;18.70;99.90;;;;;;4147021;28;19927;-57
2022/08/08 12:17:03;;;;;;;;;;;18.60;99.90;;;;;;4145208;28;19925;-56
2022/08/08 12:19:10;;;;;;;;;;;18.50;99.90;;;;;;4142838;28;19956;-56
2022/08/08 12:21:25;;;;;;;;;;;18.30;99.90;;;;;;4137089;28;19975;-56
2022/08/08 12:23:48;;;;;;;;;;;18.30;99.90;;;;;;4147517;28;19929;-56
2022/08/08 12:26:10;;;;;;;;;;;18.20;99.90;;;;;;4139217;28;20349;-55
2022/08/08 12:28:18;;;;;;;;;;;18.30;99.90;;;;;;4137068;28;19925;-56
2022/08/08 12:30:30;;;;;;;;;;;18.30;99.90;;;;;;4130895;28;20304;-55
2022/08/08 12:32:42;;;;;;;;;;;18.30;99.90;;;;;;4139882;28;20312;-57
2022/08/08 12:34:45;;;;;;;;;;;18.50;99.90;;;;;;4145939;28;19949;-56
2022/08/08 12:36:49;;;;;;;;;;;18.50;99.90;;;;;;4130842;28;19925;-56
2022/08/08 12:38:51;;;;;;;;;;;18.60;99.90;;;;;;4146667;28;19926;-56
2022/08/08 12:40:56;;;;;;;;;;;18.60;99.90;;;;;;4147113;28;20341;-56
2022/08/08 12:43:01;;;;;;;;;;;18.70;99.90;;;;;;4132077;28;19972;-57
2022/08/08 12:45:05;;;;;;;;;;;18.70;99.90;;;;;;4146887;28;20333;-56
2022/08/08 12:47:27;;;;;;;;;;;18.70;99.90;;;;;;4146162;28;19921;-57
2022/08/08 12:49:53;;;;;;;;;;;18.70;99.90;;;;;;4136231;28;19925;-57
2022/08/08 12:51:56;;;;;;;;;;;18.50;99.90;;;;;;4146897;28;19975;-58